createdAt,value
2016-09-03T00:00:05.158Z,26.05
2016-09-03T00:01:05.870Z,26.06
2016-09-03T00:02:05.167Z,26.06
2016-09-03T00:03:05.938Z,26.1
2016-09-03T00:04:05.186Z,26.07
2016-09-03T00:05:05.191Z,26.02
2016-09-03T00:06:05.911Z,25.99
2016-09-03T00:07:05.759Z,25.99
2016-09-03T00:08:05.923Z,26.1
2016-09-03T00:09:06.083Z,25.99
2016-09-03T00:10:05.942Z,26.01
2016-09-03T00:11:05.950Z,25.99
2016-09-03T00:12:05.262Z,26.01
2016-09-03T00:13:06.309Z,25.98
2016-09-03T00:14:05.315Z,26.05
2016-09-03T00:15:05.982Z,26.01
2016-09-03T00:16:05.277Z,25.99
2016-09-03T00:17:04.633Z,26.12
2016-09-03T00:18:06.954Z,25.98
2016-09-03T00:19:05.302Z,26.02
2016-09-03T00:20:06.520Z,26.01
2016-09-03T00:21:05.321Z,25.95
2016-09-03T00:22:05.327Z,25.97
2016-09-03T00:23:04.630Z,26.01
2016-09-03T00:24:04.637Z,25.97
2016-09-03T00:25:04.646Z,25.98
2016-09-03T00:26:05.361Z,26.01
2016-09-03T00:27:06.070Z,25.95
2016-09-03T00:28:04.668Z,25.99
2016-09-03T00:29:06.583Z,26.01
2016-09-03T00:30:05.399Z,26.06
2016-09-03T00:31:06.350Z,26.01
2016-09-03T00:32:05.409Z,25.98
2016-09-03T00:33:05.424Z,26.07
2016-09-03T00:34:05.437Z,25.87
2016-09-03T00:35:05.428Z,26.06
2016-09-03T00:36:05.450Z,25.87
2016-09-03T00:37:06.166Z,25.97
2016-09-03T00:38:05.453Z,26.01
2016-09-03T00:39:05.459Z,25.94
2016-09-03T00:40:05.471Z,25.98
2016-09-03T00:41:05.476Z,25.97
2016-09-03T00:42:05.484Z,25.97
2016-09-03T00:43:20.370Z,25.99
2016-09-03T00:44:04.792Z,25.98
2016-09-03T00:45:06.217Z,25.91
2016-09-03T00:46:04.967Z,26.01
2016-09-03T00:47:06.230Z,25.97
2016-09-03T00:48:05.532Z,25.9
2016-09-03T00:49:06.299Z,25.98
2016-09-03T00:50:05.547Z,25.87
2016-09-03T00:51:05.600Z,25.92
2016-09-03T00:52:04.883Z,25.87
2016-09-03T00:53:05.571Z,25.91
2016-09-03T00:54:05.576Z,25.92
2016-09-03T00:55:05.593Z,25.85
2016-09-03T00:56:06.301Z,25.95
2016-09-03T00:57:05.601Z,25.97
2016-09-03T00:58:05.656Z,25.9
2016-09-03T00:59:05.618Z,25.91
2016-09-03T01:00:06.391Z,25.87
2016-09-03T01:01:06.341Z,25.94
2016-09-03T01:02:06.135Z,25.9
2016-09-03T01:03:06.353Z,25.87
2016-09-03T01:04:05.098Z,25.88
2016-09-03T01:05:05.664Z,25.87
2016-09-03T01:06:05.676Z,25.97
2016-09-03T01:07:06.389Z,25.91
2016-09-03T01:08:05.686Z,25.9
2016-09-03T01:09:06.397Z,25.83
2016-09-03T01:10:05.705Z,25.92
2016-09-03T01:11:05.710Z,25.9
2016-09-03T01:12:06.422Z,25.92
2016-09-03T01:13:09.588Z,25.85
2016-09-03T01:14:06.439Z,25.92
2016-09-03T01:15:06.455Z,25.92
2016-09-03T01:16:05.750Z,25.87
2016-09-03T01:17:06.468Z,25.94
2016-09-03T01:18:06.479Z,25.9
2016-09-03T01:19:06.475Z,25.88
2016-09-03T01:20:05.831Z,25.88
2016-09-03T01:21:06.498Z,25.91
2016-09-03T01:22:05.796Z,25.9
2016-09-03T01:23:06.519Z,25.85
2016-09-03T01:24:05.824Z,25.91
2016-09-03T01:25:05.822Z,25.85
2016-09-03T01:26:06.126Z,25.87
2016-09-03T01:27:06.541Z,25.87
2016-09-03T01:28:05.840Z,25.91
2016-09-03T01:29:05.849Z,25.9
2016-09-03T01:30:06.565Z,25.91
2016-09-03T01:31:05.156Z,25.87
2016-09-03T01:32:05.872Z,25.9
2016-09-03T01:33:06.595Z,25.9
2016-09-03T01:34:05.897Z,25.9
2016-09-03T01:35:07.463Z,25.87
2016-09-03T01:36:05.902Z,25.85
2016-09-03T01:37:07.124Z,25.9
2016-09-03T01:38:06.627Z,25.88
2016-09-03T01:39:05.928Z,25.87
2016-09-03T01:40:06.641Z,25.85
2016-09-03T01:41:06.660Z,25.83
2016-09-03T01:42:05.949Z,25.85
2016-09-03T01:43:20.128Z,25.88
2016-09-03T01:44:05.964Z,25.88
2016-09-03T01:45:05.974Z,25.9
2016-09-03T01:46:05.981Z,25.85
2016-09-03T01:47:06.753Z,25.87
2016-09-03T01:48:06.763Z,25.85
2016-09-03T01:49:06.714Z,25.88
2016-09-03T01:50:06.017Z,25.87
2016-09-03T01:51:06.021Z,25.91
2016-09-03T01:52:06.026Z,25.87
2016-09-03T01:53:06.033Z,25.85
2016-09-03T01:54:06.041Z,25.83
2016-09-03T01:55:05.492Z,25.83
2016-09-03T01:56:06.052Z,25.77
2016-09-03T01:57:06.065Z,25.79
2016-09-03T01:58:06.078Z,25.85
2016-09-03T01:59:07.835Z,25.82
2016-09-03T02:00:06.861Z,25.87
2016-09-03T02:01:06.147Z,25.91
2016-09-03T02:02:05.395Z,25.83
2016-09-03T02:03:06.111Z,25.88
2016-09-03T02:04:06.826Z,25.91
2016-09-03T02:05:06.835Z,25.76
2016-09-03T02:06:07.391Z,25.82
2016-09-03T02:07:06.139Z,25.76
2016-09-03T02:08:06.151Z,25.79
2016-09-03T02:09:06.157Z,25.73
2016-09-03T02:10:05.457Z,25.73
2016-09-03T02:11:06.170Z,25.79
2016-09-03T02:12:06.891Z,25.73
2016-09-03T02:13:06.895Z,25.88
2016-09-03T02:14:06.954Z,25.72
2016-09-03T02:15:06.209Z,25.79
2016-09-03T02:16:06.212Z,25.8
2016-09-03T02:17:07.882Z,25.75
2016-09-03T02:18:06.929Z,25.8
2016-09-03T02:19:06.837Z,25.82
2016-09-03T02:20:06.962Z,25.8
2016-09-03T02:21:06.299Z,25.82
2016-09-03T02:22:06.264Z,25.8
2016-09-03T02:23:06.974Z,25.87
2016-09-03T02:24:06.279Z,25.8
2016-09-03T02:25:06.282Z,25.88
2016-09-03T02:26:06.997Z,25.88
2016-09-03T02:27:05.593Z,25.76
2016-09-03T02:28:06.846Z,25.8
2016-09-03T02:29:06.316Z,25.75
2016-09-03T02:30:07.426Z,25.75
2016-09-03T02:31:05.619Z,25.76
2016-09-03T02:32:06.439Z,25.77
2016-09-03T02:33:07.050Z,25.76
2016-09-03T02:34:06.348Z,25.77
2016-09-03T02:35:07.063Z,25.79
2016-09-03T02:36:07.072Z,25.77
2016-09-03T02:37:05.668Z,25.75
2016-09-03T02:38:07.085Z,25.79
2016-09-03T02:39:07.095Z,25.77
2016-09-03T02:40:07.099Z,25.82
2016-09-03T02:41:05.695Z,25.83
2016-09-03T02:42:06.414Z,25.77
2016-09-03T02:43:07.069Z,25.76
2016-09-03T02:44:07.149Z,25.77
2016-09-03T02:45:05.732Z,25.77
2016-09-03T02:46:05.738Z,25.8
2016-09-03T02:47:07.159Z,25.76
2016-09-03T02:48:07.215Z,25.82
2016-09-03T02:49:06.464Z,25.76
2016-09-03T02:50:07.182Z,25.8
2016-09-03T02:51:06.477Z,25.82
2016-09-03T02:52:06.490Z,25.82
2016-09-03T02:53:06.496Z,25.75
2016-09-03T02:54:07.612Z,25.79
2016-09-03T02:55:06.509Z,25.8
2016-09-03T02:56:06.520Z,25.73
2016-09-03T02:57:06.528Z,25.77
2016-09-03T02:58:05.828Z,25.85
2016-09-03T02:59:07.255Z,25.73
2016-09-03T03:00:06.551Z,25.73
2016-09-03T03:01:06.558Z,25.76
2016-09-03T03:02:05.909Z,25.75
2016-09-03T03:03:06.573Z,25.75
2016-09-03T03:04:07.294Z,25.79
2016-09-03T03:05:05.880Z,25.72
2016-09-03T03:06:05.894Z,25.77
2016-09-03T03:07:06.610Z,25.76
2016-09-03T03:08:07.316Z,25.69
2016-09-03T03:09:07.377Z,25.72
2016-09-03T03:10:05.921Z,25.75
2016-09-03T03:11:05.926Z,25.72
2016-09-03T03:12:07.849Z,25.76
2016-09-03T03:13:20.821Z,25.67
2016-09-03T03:14:06.858Z,25.75
2016-09-03T03:15:07.379Z,25.75
2016-09-03T03:16:06.671Z,25.72
2016-09-03T03:17:06.730Z,25.72
2016-09-03T03:18:07.394Z,25.69
2016-09-03T03:19:05.993Z,25.67
2016-09-03T03:20:05.997Z,25.75
2016-09-03T03:21:07.417Z,25.73
2016-09-03T03:22:07.426Z,25.72
2016-09-03T03:23:08.536Z,25.76
2016-09-03T03:24:06.072Z,25.67
2016-09-03T03:25:08.516Z,25.76
2016-09-03T03:26:07.461Z,25.73
2016-09-03T03:27:06.801Z,25.67
2016-09-03T03:28:06.764Z,25.73
2016-09-03T03:29:06.770Z,25.7
2016-09-03T03:30:06.072Z,25.7
2016-09-03T03:31:06.786Z,25.73
2016-09-03T03:32:06.083Z,25.75
2016-09-03T03:33:06.802Z,25.69
2016-09-03T03:34:07.519Z,25.67
2016-09-03T03:35:06.105Z,25.7
2016-09-03T03:36:08.517Z,25.69
2016-09-03T03:37:06.128Z,25.67
2016-09-03T03:38:07.541Z,25.69
2016-09-03T03:39:06.851Z,25.7
2016-09-03T03:40:07.562Z,25.72
2016-09-03T03:41:06.871Z,25.7
2016-09-03T03:42:07.586Z,25.69
2016-09-03T03:43:07.729Z,25.61
2016-09-03T03:44:06.888Z,25.67
2016-09-03T03:45:07.902Z,25.72
2016-09-03T03:46:07.605Z,25.72
2016-09-03T03:47:06.204Z,25.65
2016-09-03T03:48:06.217Z,25.69
2016-09-03T03:49:06.218Z,25.67
2016-09-03T03:50:07.640Z,25.73
2016-09-03T03:51:07.646Z,25.69
2016-09-03T03:52:07.701Z,25.64
2016-09-03T03:53:06.957Z,25.67
2016-09-03T03:54:06.961Z,25.7
2016-09-03T03:55:06.973Z,25.69
2016-09-03T03:56:07.744Z,25.69
2016-09-03T03:57:06.985Z,25.76
2016-09-03T03:58:06.997Z,25.72
2016-09-03T03:59:07.003Z,25.75
2016-09-03T04:00:07.006Z,25.69
2016-09-03T04:01:07.723Z,25.69
2016-09-03T04:02:07.022Z,25.65
2016-09-03T04:03:07.078Z,25.69
2016-09-03T04:04:07.039Z,25.69
2016-09-03T04:05:07.755Z,25.7
2016-09-03T04:06:07.067Z,25.58
2016-09-03T04:07:08.117Z,25.61
2016-09-03T04:08:07.068Z,25.72
2016-09-03T04:09:08.085Z,25.58
2016-09-03T04:10:07.847Z,25.65
2016-09-03T04:11:07.140Z,25.65
2016-09-03T04:12:06.396Z,25.69
2016-09-03T04:13:07.107Z,25.6
2016-09-03T04:14:07.112Z,25.61
2016-09-03T04:15:06.718Z,25.6
2016-09-03T04:16:06.427Z,25.62
2016-09-03T04:17:07.895Z,25.7
2016-09-03T04:18:07.144Z,25.58
2016-09-03T04:19:07.860Z,25.57
2016-09-03T04:20:08.820Z,25.6
2016-09-03T04:21:07.170Z,25.62
2016-09-03T04:22:07.179Z,25.58
2016-09-03T04:23:07.186Z,25.62
2016-09-03T04:24:06.492Z,25.65
2016-09-03T04:25:07.202Z,25.6
2016-09-03T04:26:07.208Z,25.62
2016-09-03T04:27:07.217Z,25.69
2016-09-03T04:28:07.928Z,25.6
2016-09-03T04:29:07.233Z,25.58
2016-09-03T04:30:07.946Z,25.64
2016-09-03T04:31:07.247Z,25.65
2016-09-03T04:32:07.958Z,25.64
2016-09-03T04:33:07.275Z,25.65
2016-09-03T04:34:07.269Z,25.62
2016-09-03T04:35:07.989Z,25.61
2016-09-03T04:36:07.281Z,25.7
2016-09-03T04:37:06.582Z,25.67
2016-09-03T04:38:08.007Z,25.64
2016-09-03T04:39:07.306Z,25.69
2016-09-03T04:40:07.362Z,25.7
2016-09-03T04:41:08.031Z,25.62
2016-09-03T04:42:07.120Z,25.62
2016-09-03T04:43:07.339Z,25.65
2016-09-03T04:44:07.355Z,25.6
2016-09-03T04:45:08.057Z,25.6
2016-09-03T04:46:08.067Z,25.6
2016-09-03T04:47:07.366Z,25.6
2016-09-03T04:48:07.373Z,25.57
2016-09-03T04:49:07.383Z,25.65
2016-09-03T04:50:07.385Z,25.58
2016-09-03T04:51:07.936Z,25.58
2016-09-03T04:52:06.751Z,25.62
2016-09-03T04:53:08.369Z,25.67
2016-09-03T04:54:07.417Z,25.58
2016-09-03T04:55:07.427Z,25.57
2016-09-03T04:56:07.435Z,25.62
2016-09-03T04:57:07.442Z,25.6
2016-09-03T04:58:07.451Z,25.55
2016-09-03T04:59:07.454Z,25.58
2016-09-03T05:00:08.172Z,25.58
2016-09-03T05:01:07.471Z,25.6
2016-09-03T05:02:09.311Z,25.6
2016-09-03T05:03:07.534Z,25.57
2016-09-03T05:04:09.103Z,25.57
2016-09-03T05:05:07.498Z,25.55
2016-09-03T05:06:08.216Z,25.62
2016-09-03T05:07:07.516Z,25.6
2016-09-03T05:08:07.525Z,25.62
2016-09-03T05:09:07.535Z,25.7
2016-09-03T05:10:06.880Z,25.62
2016-09-03T05:11:07.549Z,25.57
2016-09-03T05:12:07.555Z,25.55
2016-09-03T05:13:09.238Z,25.64
2016-09-03T05:14:07.568Z,25.6
2016-09-03T05:15:06.870Z,25.62
2016-09-03T05:16:08.289Z,25.6
2016-09-03T05:17:06.886Z,25.67
2016-09-03T05:18:07.598Z,25.6
2016-09-03T05:19:08.311Z,25.57
2016-09-03T05:20:07.612Z,25.62
2016-09-03T05:21:07.676Z,25.6
2016-09-03T05:22:08.335Z,25.6
2016-09-03T05:23:08.340Z,25.6
2016-09-03T05:24:08.754Z,25.61
2016-09-03T05:25:07.657Z,25.61
2016-09-03T05:26:07.713Z,25.61
2016-09-03T05:27:08.378Z,25.62
2016-09-03T05:28:08.380Z,25.64
2016-09-03T05:29:07.682Z,25.61
2016-09-03T05:30:08.397Z,25.61
2016-09-03T05:31:08.450Z,25.55
2016-09-03T05:32:06.998Z,25.69
2016-09-03T05:33:07.709Z,25.62
2016-09-03T05:34:07.717Z,25.61
2016-09-03T05:35:08.823Z,25.65
2016-09-03T05:36:07.732Z,25.61
2016-09-03T05:37:08.444Z,25.62
2016-09-03T05:38:08.609Z,25.65
2016-09-03T05:39:07.765Z,25.7
2016-09-03T05:40:07.771Z,25.7
2016-09-03T05:41:08.492Z,25.6
2016-09-03T05:42:07.069Z,25.6
2016-09-03T05:43:08.494Z,25.65
2016-09-03T05:44:07.800Z,25.67
2016-09-03T05:45:07.799Z,25.64
2016-09-03T05:46:09.283Z,25.57
2016-09-03T05:47:08.524Z,25.62
2016-09-03T05:48:08.327Z,25.7
2016-09-03T05:49:08.541Z,25.72
2016-09-03T05:50:08.549Z,25.69
2016-09-03T05:51:07.145Z,25.69
2016-09-03T05:52:07.858Z,25.7
2016-09-03T05:53:08.567Z,25.64
2016-09-03T05:54:07.923Z,25.67
2016-09-03T05:55:07.172Z,25.72
2016-09-03T05:56:08.596Z,25.69
2016-09-03T05:57:09.764Z,25.7
2016-09-03T05:58:08.608Z,25.6
2016-09-03T05:59:08.563Z,25.67
2016-09-03T06:00:07.918Z,25.67
2016-09-03T06:01:07.923Z,25.7
2016-09-03T06:02:07.937Z,25.75
2016-09-03T06:03:07.944Z,25.79
2016-09-03T06:04:07.950Z,25.7
2016-09-03T06:05:07.961Z,25.73
2016-09-03T06:06:09.023Z,25.72
2016-09-03T06:07:08.683Z,25.77
2016-09-03T06:08:07.325Z,25.73
2016-09-03T06:09:08.701Z,25.72
2016-09-03T06:10:07.313Z,25.72
2016-09-03T06:11:08.018Z,25.79
2016-09-03T06:12:07.354Z,25.8
2016-09-03T06:13:07.311Z,25.77
2016-09-03T06:14:08.028Z,25.76
2016-09-03T06:15:08.039Z,25.77
2016-09-03T06:16:08.761Z,25.73
2016-09-03T06:17:09.002Z,25.77
2016-09-03T06:18:08.059Z,25.8
2016-09-03T06:19:08.067Z,25.77
2016-09-03T06:20:08.784Z,25.79
2016-09-03T06:21:08.084Z,25.72
2016-09-03T06:22:08.087Z,25.75
2016-09-03T06:23:08.097Z,25.76
2016-09-03T06:24:07.448Z,25.77
2016-09-03T06:25:08.162Z,25.69
2016-09-03T06:26:08.119Z,25.77
2016-09-03T06:27:08.128Z,25.73
2016-09-03T06:28:09.683Z,25.77
2016-09-03T06:29:08.144Z,25.76
2016-09-03T06:30:09.509Z,25.79
2016-09-03T06:31:08.161Z,25.79
2016-09-03T06:32:08.876Z,25.8
2016-09-03T06:33:08.176Z,25.82
2016-09-03T06:34:08.181Z,25.8
2016-09-03T06:35:08.901Z,25.82
2016-09-03T06:36:08.198Z,25.77
2016-09-03T06:37:08.925Z,25.75
2016-09-03T06:38:08.217Z,25.72
2016-09-03T06:39:08.933Z,25.79
2016-09-03T06:40:08.937Z,25.79
2016-09-03T06:41:10.045Z,25.8
2016-09-03T06:42:09.002Z,25.72
2016-09-03T06:43:09.158Z,25.88
2016-09-03T06:44:08.263Z,25.77
2016-09-03T06:45:07.564Z,25.76
2016-09-03T06:46:08.286Z,25.87
2016-09-03T06:47:08.290Z,25.76
2016-09-03T06:48:08.292Z,25.9
2016-09-03T06:49:08.302Z,25.9
2016-09-03T06:50:08.010Z,25.85
2016-09-03T06:51:08.331Z,25.9
2016-09-03T06:52:09.682Z,25.82
2016-09-03T06:53:08.336Z,25.88
2016-09-03T06:54:09.458Z,25.85
2016-09-03T06:55:08.350Z,25.85
2016-09-03T06:56:09.068Z,25.82
2016-09-03T06:57:09.074Z,25.83
2016-09-03T06:58:09.133Z,25.76
2016-09-03T06:59:09.090Z,25.87
2016-09-03T07:00:08.397Z,25.85
2016-09-03T07:01:09.110Z,25.88
2016-09-03T07:02:09.122Z,25.87
2016-09-03T07:03:08.416Z,25.77
2016-09-03T07:04:08.426Z,25.85
2016-09-03T07:05:08.434Z,25.87
2016-09-03T07:06:07.783Z,25.85
2016-09-03T07:07:08.451Z,25.9
2016-09-03T07:08:09.162Z,25.85
2016-09-03T07:09:08.473Z,25.91
2016-09-03T07:10:08.487Z,25.83
2016-09-03T07:11:09.183Z,25.77
2016-09-03T07:12:09.548Z,25.85
2016-09-03T07:13:08.498Z,25.77
2016-09-03T07:14:09.263Z,25.85
2016-09-03T07:15:09.222Z,25.88
2016-09-03T07:16:07.813Z,25.73
2016-09-03T07:17:07.820Z,25.85
2016-09-03T07:18:08.542Z,25.87
2016-09-03T07:19:07.838Z,25.85
2016-09-03T07:20:08.556Z,25.76
2016-09-03T07:21:08.563Z,25.73
2016-09-03T07:22:09.278Z,25.76
2016-09-03T07:23:09.329Z,25.8
2016-09-03T07:24:08.586Z,25.9
2016-09-03T07:25:09.193Z,25.79
2016-09-03T07:26:08.608Z,25.87
2016-09-03T07:27:09.376Z,25.76
2016-09-03T07:28:09.324Z,25.83
2016-09-03T07:29:09.334Z,25.88
2016-09-03T07:30:07.929Z,25.77
2016-09-03T07:31:07.982Z,25.76
2016-09-03T07:32:08.650Z,25.76
2016-09-03T07:33:08.663Z,25.87
2016-09-03T07:34:10.500Z,25.82
2016-09-03T07:35:07.970Z,25.76
2016-09-03T07:36:10.338Z,25.82
2016-09-03T07:37:09.399Z,25.82
2016-09-03T07:38:07.993Z,25.76
2016-09-03T07:39:07.998Z,25.76
2016-09-03T07:40:08.009Z,25.76
2016-09-03T07:41:09.428Z,25.79
2016-09-03T07:42:08.025Z,25.85
2016-09-03T07:43:08.042Z,25.77
2016-09-03T07:44:09.500Z,25.73
2016-09-03T07:45:08.346Z,25.76
2016-09-03T07:46:09.467Z,25.73
2016-09-03T07:47:08.117Z,25.61
2016-09-03T07:48:08.776Z,25.6
2016-09-03T07:49:08.787Z,25.65
2016-09-03T07:50:08.794Z,25.72
2016-09-03T07:51:08.808Z,25.52
2016-09-03T07:52:08.102Z,25.52
2016-09-03T07:53:08.813Z,25.52
2016-09-03T07:54:08.117Z,25.54
2016-09-03T07:55:08.833Z,25.5
2016-09-03T07:56:09.694Z,25.58
2016-09-03T07:57:09.556Z,25.51
2016-09-03T07:58:08.901Z,25.45
2016-09-03T07:59:08.872Z,25.39
2016-09-03T08:00:08.886Z,25.42
2016-09-03T08:01:08.166Z,25.3
2016-09-03T08:02:08.878Z,25.21
2016-09-03T08:03:08.885Z,25.25
2016-09-03T08:04:08.233Z,25.17
2016-09-03T08:05:08.901Z,25.21
2016-09-03T08:06:08.204Z,25.21
2016-09-03T08:07:09.609Z,25.17
2016-09-03T08:08:08.212Z,25.2
2016-09-03T08:09:09.633Z,25.4
2016-09-03T08:10:09.641Z,25.33
2016-09-03T08:11:09.645Z,25.28
2016-09-03T08:12:08.942Z,25.28
2016-09-03T08:13:09.657Z,25.13
2016-09-03T08:14:08.959Z,25.23
2016-09-03T08:15:09.673Z,25.27
2016-09-03T08:16:09.681Z,25.27
2016-09-03T08:17:09.682Z,25.21
2016-09-03T08:18:10.789Z,25.05
2016-09-03T08:19:08.280Z,25.14
2016-09-03T08:20:09.955Z,25.17
2016-09-03T08:21:09.710Z,25.3
2016-09-03T08:22:09.009Z,25.14
2016-09-03T08:23:09.017Z,25.21
2016-09-03T08:24:09.729Z,25.13
2016-09-03T08:25:09.731Z,25.23
2016-09-03T08:26:09.739Z,25.24
2016-09-03T08:27:09.209Z,25.21
2016-09-03T08:28:09.042Z,25.14
2016-09-03T08:29:08.346Z,25.17
2016-09-03T08:30:09.059Z,25.13
2016-09-03T08:31:10.580Z,25.23
2016-09-03T08:32:09.836Z,25.23
2016-09-03T08:33:09.084Z,25.13
2016-09-03T08:34:09.787Z,25.18
2016-09-03T08:35:09.795Z,25.05
2016-09-03T08:36:08.385Z,25.13
2016-09-03T08:37:09.822Z,25.17
2016-09-03T08:38:09.106Z,25.21
2016-09-03T08:39:09.118Z,25.21
2016-09-03T08:40:09.120Z,25.36
2016-09-03T08:41:09.839Z,25.36
2016-09-03T08:42:09.133Z,25.38
2016-09-03T08:43:09.845Z,25.25
2016-09-03T08:44:08.441Z,25.23
2016-09-03T08:45:09.153Z,25.18
2016-09-03T08:46:09.211Z,25.2
2016-09-03T08:47:08.455Z,25.35
2016-09-03T08:48:09.170Z,25.38
2016-09-03T08:49:09.178Z,25.5
2016-09-03T08:50:09.183Z,25.54
2016-09-03T08:51:10.605Z,25.6
2016-09-03T08:52:09.908Z,25.6
2016-09-03T08:53:10.111Z,25.52
2016-09-03T08:54:09.210Z,25.47
2016-09-03T08:55:09.215Z,25.51
2016-09-03T08:56:09.931Z,25.51
2016-09-03T08:57:09.229Z,25.52
2016-09-03T08:58:09.991Z,25.55
2016-09-03T08:59:08.535Z,25.61
2016-09-03T09:00:09.250Z,25.69
2016-09-03T09:01:08.551Z,25.77
2016-09-03T09:02:08.661Z,25.6
2016-09-03T09:03:09.268Z,25.82
2016-09-03T09:04:10.523Z,25.7
2016-09-03T09:05:09.284Z,25.76
2016-09-03T09:06:09.995Z,25.8
2016-09-03T09:07:10.003Z,25.82
2016-09-03T09:08:09.307Z,25.87
2016-09-03T09:09:09.313Z,25.83
2016-09-03T09:10:10.025Z,25.79
2016-09-03T09:11:08.618Z,25.7
2016-09-03T09:12:09.340Z,25.67
2016-09-03T09:13:09.343Z,25.67
2016-09-03T09:14:08.645Z,25.61
2016-09-03T09:15:09.356Z,25.7
2016-09-03T09:16:10.068Z,25.73
2016-09-03T09:17:09.370Z,25.7
2016-09-03T09:18:09.371Z,25.54
2016-09-03T09:19:09.385Z,25.61
2016-09-03T09:20:09.389Z,25.7
2016-09-03T09:21:09.444Z,25.72
2016-09-03T09:22:09.403Z,25.58
2016-09-03T09:23:09.409Z,25.72
2016-09-03T09:24:10.720Z,25.62
2016-09-03T09:25:08.712Z,25.42
2016-09-03T09:26:10.134Z,25.51
2016-09-03T09:27:10.144Z,25.61
2016-09-03T09:28:09.447Z,25.67
2016-09-03T09:29:10.154Z,25.79
2016-09-03T09:30:08.751Z,25.61
2016-09-03T09:31:10.171Z,25.67
2016-09-03T09:32:10.181Z,25.62
2016-09-03T09:33:08.767Z,25.55
2016-09-03T09:34:10.189Z,25.61
2016-09-03T09:35:10.636Z,25.62
2016-09-03T09:36:10.220Z,25.58
2016-09-03T09:37:10.410Z,25.72
2016-09-03T09:38:09.513Z,25.62
2016-09-03T09:39:10.224Z,25.62
2016-09-03T09:40:09.526Z,25.61
2016-09-03T09:41:08.873Z,25.58
2016-09-03T09:42:10.242Z,25.57
2016-09-03T09:43:10.265Z,25.6
2016-09-03T09:44:09.552Z,25.57
2016-09-03T09:45:08.849Z,25.67
2016-09-03T09:46:09.569Z,25.55
2016-09-03T09:47:09.572Z,25.58
2016-09-03T09:48:10.096Z,25.5
2016-09-03T09:49:10.295Z,25.72
2016-09-03T09:50:09.593Z,25.58
2016-09-03T09:51:09.597Z,25.65
2016-09-03T09:52:10.319Z,25.7
2016-09-03T09:53:09.623Z,25.6
2016-09-03T09:54:08.914Z,25.62
2016-09-03T09:55:10.582Z,25.65
2016-09-03T09:56:08.926Z,25.72
2016-09-03T09:57:09.645Z,25.75
2016-09-03T09:58:09.656Z,25.75
2016-09-03T09:59:11.464Z,25.73
2016-09-03T10:00:09.662Z,25.7
2016-09-03T10:01:09.669Z,25.73
2016-09-03T10:02:09.672Z,25.61
2016-09-03T10:03:10.389Z,25.5
2016-09-03T10:04:09.690Z,25.58
2016-09-03T10:05:09.695Z,25.4
2016-09-03T10:06:11.109Z,25.39
2016-09-03T10:07:10.413Z,25.36
2016-09-03T10:08:10.423Z,25.35
2016-09-03T10:09:09.723Z,25.43
2016-09-03T10:10:11.067Z,25.38
2016-09-03T10:11:09.027Z,25.32
2016-09-03T10:12:09.744Z,25.38
2016-09-03T10:13:10.460Z,25.35
2016-09-03T10:14:09.755Z,25.43
2016-09-03T10:15:10.472Z,25.42
2016-09-03T10:16:09.765Z,25.35
2016-09-03T10:17:10.894Z,25.51
2016-09-03T10:18:09.075Z,25.43
2016-09-03T10:19:09.985Z,25.38
2016-09-03T10:20:09.790Z,25.55
2016-09-03T10:21:09.897Z,25.52
2016-09-03T10:22:10.512Z,25.4
2016-09-03T10:23:10.519Z,25.39
2016-09-03T10:24:09.115Z,25.46
2016-09-03T10:25:09.826Z,25.38
2016-09-03T10:26:09.832Z,25.51
2016-09-03T10:27:09.837Z,25.35
2016-09-03T10:28:09.844Z,25.33
2016-09-03T10:29:09.145Z,25.39
2016-09-03T10:30:10.715Z,25.32
2016-09-03T10:31:09.866Z,25.39
2016-09-03T10:32:10.574Z,25.39
2016-09-03T10:33:09.876Z,25.47
2016-09-03T10:34:09.882Z,25.47
2016-09-03T10:35:09.891Z,25.38
2016-09-03T10:36:10.602Z,25.43
2016-09-03T10:37:10.608Z,25.36
2016-09-03T10:38:09.906Z,25.3
2016-09-03T10:39:10.622Z,25.21
2016-09-03T10:40:10.625Z,25.27
2016-09-03T10:41:11.773Z,25.3
2016-09-03T10:42:09.227Z,25.35
2016-09-03T10:43:10.988Z,25.36
2016-09-03T10:44:09.947Z,25.25
2016-09-03T10:45:09.950Z,25.39
2016-09-03T10:46:09.955Z,25.5
2016-09-03T10:47:09.965Z,25.54
2016-09-03T10:48:10.680Z,25.52
2016-09-03T10:49:09.976Z,25.5
2016-09-03T10:50:09.987Z,25.5
2016-09-03T10:51:09.991Z,25.55
2016-09-03T10:52:11.679Z,25.43
2016-09-03T10:53:09.297Z,25.39
2016-09-03T10:54:10.065Z,25.35
2016-09-03T10:55:10.724Z,25.36
2016-09-03T10:56:10.729Z,25.4
2016-09-03T10:57:10.733Z,25.51
2016-09-03T10:58:11.038Z,25.6
2016-09-03T10:59:10.752Z,25.52
2016-09-03T11:00:10.805Z,25.54
2016-09-03T11:01:10.707Z,25.43
2016-09-03T11:02:09.411Z,25.4
2016-09-03T11:03:10.418Z,25.39
2016-09-03T11:04:10.125Z,25.39
2016-09-03T11:05:09.372Z,25.39
2016-09-03T11:06:10.099Z,25.4
2016-09-03T11:07:10.097Z,25.4
2016-09-03T11:08:10.104Z,25.51
2016-09-03T11:09:10.111Z,25.45
2016-09-03T11:10:09.410Z,25.45
2016-09-03T11:11:09.415Z,25.33
2016-09-03T11:12:11.221Z,25.35
2016-09-03T11:13:09.427Z,25.4
2016-09-03T11:14:11.650Z,25.5
2016-09-03T11:15:10.857Z,25.6
2016-09-03T11:16:10.862Z,25.69
2016-09-03T11:17:10.164Z,25.6
2016-09-03T11:18:10.168Z,25.7
2016-09-03T11:19:10.173Z,25.47
2016-09-03T11:20:10.236Z,25.55
2016-09-03T11:21:10.188Z,25.36
2016-09-03T11:22:09.488Z,25.38
2016-09-03T11:23:11.702Z,25.43
2016-09-03T11:24:09.501Z,25.38
2016-09-03T11:25:11.537Z,25.47
2016-09-03T11:26:10.936Z,25.52
2016-09-03T11:27:09.525Z,25.58
2016-09-03T11:28:10.237Z,25.62
2016-09-03T11:29:10.241Z,25.58
2016-09-03T11:30:10.958Z,25.67
2016-09-03T11:31:09.550Z,25.6
2016-09-03T11:32:09.558Z,25.62
2016-09-03T11:33:10.272Z,25.6
2016-09-03T11:34:10.272Z,25.67
2016-09-03T11:35:09.582Z,25.67
2016-09-03T11:36:09.585Z,25.67
2016-09-03T11:37:11.010Z,25.72
2016-09-03T11:38:10.306Z,25.72
2016-09-03T11:39:10.314Z,25.67
2016-09-03T11:40:11.024Z,25.65
2016-09-03T11:41:10.326Z,25.61
2016-09-03T11:42:09.624Z,25.65
2016-09-03T11:43:09.634Z,25.6
2016-09-03T11:44:10.350Z,25.72
2016-09-03T11:45:11.360Z,25.55
2016-09-03T11:46:11.119Z,25.47
2016-09-03T11:47:10.538Z,25.55
2016-09-03T11:48:10.422Z,25.58
2016-09-03T11:49:10.381Z,25.54
2016-09-03T11:50:11.098Z,25.58
2016-09-03T11:51:10.395Z,25.61
2016-09-03T11:52:11.112Z,25.73
2016-09-03T11:53:11.114Z,25.69
2016-09-03T11:54:10.487Z,25.69
2016-09-03T11:55:10.425Z,25.72
2016-09-03T11:56:11.430Z,25.69
2016-09-03T11:57:11.147Z,25.65
2016-09-03T11:58:10.435Z,25.57
2016-09-03T11:59:10.460Z,25.72
2016-09-03T12:00:10.456Z,25.79
2016-09-03T12:01:10.471Z,25.77
2016-09-03T12:02:10.520Z,25.8
2016-09-03T12:03:11.185Z,25.79
2016-09-03T12:04:11.189Z,25.76
2016-09-03T12:05:10.495Z,25.77
2016-09-03T12:06:09.844Z,25.77
2016-09-03T12:07:12.021Z,25.88
2016-09-03T12:08:10.511Z,25.77
2016-09-03T12:09:11.726Z,25.77
2016-09-03T12:10:10.526Z,25.75
2016-09-03T12:11:10.534Z,25.88
2016-09-03T12:12:10.543Z,25.85
2016-09-03T12:13:09.836Z,25.85
2016-09-03T12:14:10.555Z,25.91
2016-09-03T12:15:10.564Z,25.87
2016-09-03T12:16:11.275Z,25.88
2016-09-03T12:17:09.873Z,25.88
2016-09-03T12:18:10.586Z,25.85
2016-09-03T12:19:11.299Z,25.83
2016-09-03T12:20:12.354Z,25.88
2016-09-03T12:21:10.604Z,25.79
2016-09-03T12:22:10.615Z,25.75
2016-09-03T12:23:10.673Z,25.87
2016-09-03T12:24:10.626Z,25.75
2016-09-03T12:25:11.345Z,25.9
2016-09-03T12:26:09.938Z,25.85
2016-09-03T12:27:10.649Z,25.87
2016-09-03T12:28:11.365Z,25.82
2016-09-03T12:29:10.664Z,25.88
2016-09-03T12:30:10.674Z,25.83
2016-09-03T12:31:10.690Z,25.76
2016-09-03T12:32:10.735Z,25.8
2016-09-03T12:33:10.745Z,25.76
2016-09-03T12:34:10.701Z,25.88
2016-09-03T12:35:10.000Z,25.8
2016-09-03T12:36:10.726Z,25.76
2016-09-03T12:37:11.427Z,25.75
2016-09-03T12:38:11.453Z,25.79
2016-09-03T12:39:10.736Z,25.83
2016-09-03T12:40:11.452Z,25.75
2016-09-03T12:41:11.454Z,25.91
2016-09-03T12:42:10.448Z,25.82
2016-09-03T12:43:11.472Z,25.9
2016-09-03T12:44:11.486Z,25.94
2016-09-03T12:45:10.074Z,25.87
2016-09-03T12:46:10.787Z,25.87
2016-09-03T12:47:10.086Z,25.85
2016-09-03T12:48:10.803Z,25.94
2016-09-03T12:49:10.856Z,25.88
2016-09-03T12:50:10.819Z,25.79
2016-09-03T12:51:10.666Z,25.77
2016-09-03T12:52:10.831Z,25.85
2016-09-03T12:53:12.663Z,25.83
2016-09-03T12:54:11.551Z,25.88
2016-09-03T12:55:11.567Z,25.77
2016-09-03T12:56:10.863Z,25.87